Time;durP1;ratioP1;P1;durP2;ratioP2;P2;SDS_P1;SDS_P2;PMS_P1;PMS_P2;Temp;Humidity;BMP_temperature;BMP_pressure;BME280_temperature;BME280_humidity;BME280_pressure;Samples;Min_cycle;Max_cycle;Signal;HPM_P1;HPM_P2
2021/05/13 00:00:08;;;;;;;8.35;4.57;;;17.40;99.90;;;;;;5031551;28;20451;-64
2021/05/13 00:02:39;;;;;;;7.28;4.10;;;17.40;99.90;;;;;;5038211;28;20053;-64
2021/05/13 00:05:07;;;;;;;8.27;4.50;;;17.30;99.90;;;;;;5053431;28;20088;-64
2021/05/13 00:07:34;;;;;;;10.48;4.65;;;17.30;99.90;;;;;;5048293;28;20420;-64
2021/05/13 00:10:01;;;;;;;9.93;5.03;;;17.40;99.90;;;;;;5032957;28;20103;-64
2021/05/13 00:12:41;;;;;;;9.20;4.93;;;17.40;99.90;;;;;;5052559;28;20412;-64
2021/05/13 00:15:19;;;;;;;9.70;4.72;;;17.40;99.90;;;;;;5036230;28;20103;-64
2021/05/13 00:17:47;;;;;;;9.73;4.82;;;17.40;99.90;;;;;;5052307;28;20107;-64
2021/05/13 00:20:19;;;;;;;10.98;4.45;;;17.50;99.90;;;;;;5050723;28;20059;-64
2021/05/13 00:22:46;;;;;;;11.40;4.97;;;17.50;99.90;;;;;;5052220;28;20041;-65
2021/05/13 00:25:14;;;;;;;9.40;5.18;;;17.50;99.90;;;;;;5054064;28;20515;-64
2021/05/13 00:27:41;;;;;;;10.88;5.40;;;17.50;99.90;;;;;;5052562;28;20040;-64
2021/05/13 00:30:09;;;;;;;9.98;5.72;;;17.40;99.90;;;;;;5034322;28;20053;-64
2021/05/13 00:32:37;;;;;;;10.13;4.70;;;17.40;99.90;;;;;;5052501;28;20049;-64
2021/05/13 00:35:06;;;;;;;10.60;4.85;;;17.40;99.90;;;;;;5016097;28;20443;-65
2021/05/13 00:37:33;;;;;;;8.48;4.75;;;17.30;99.90;;;;;;5032844;28;20106;-65
2021/05/13 00:40:00;;;;;;;8.32;4.70;;;17.30;99.90;;;;;;5052129;28;20041;-65
2021/05/13 00:42:27;;;;;;;9.68;5.25;;;17.30;99.90;;;;;;5048305;28;20057;-64
2021/05/13 00:44:56;;;;;;;8.10;4.57;;;17.30;99.90;;;;;;5053145;28;20051;-65
2021/05/13 00:47:25;;;;;;;8.98;4.88;;;17.30;99.90;;;;;;5053767;28;20099;-65
2021/05/13 00:49:52;;;;;;;8.60;4.38;;;17.40;99.90;;;;;;5036058;28;20057;-64
2021/05/13 00:52:21;;;;;;;9.88;5.07;;;17.40;99.90;;;;;;5033844;28;20049;-64
2021/05/13 00:54:48;;;;;;;8.25;4.53;;;17.30;99.90;;;;;;5051258;28;20045;-65
2021/05/13 00:57:16;;;;;;;8.77;5.25;;;17.30;99.90;;;;;;5045073;28;20054;-64
2021/05/13 00:59:49;;;;;;;9.32;4.97;;;17.30;99.90;;;;;;5033802;28;20687;-64
2021/05/13 01:02:16;;;;;;;10.38;4.93;;;17.40;99.90;;;;;;5033013;28;20875;-64
2021/05/13 01:04:43;;;;;;;10.55;5.22;;;17.40;99.90;;;;;;5028041;28;20454;-64
2021/05/13 01:07:11;;;;;;;9.27;4.53;;;17.40;99.90;;;;;;5053794;28;20492;-64
2021/05/13 01:09:38;;;;;;;10.85;4.72;;;17.40;99.90;;;;;;5031110;28;20095;-65
2021/05/13 01:12:11;;;;;;;8.32;4.57;;;17.40;99.90;;;;;;5016197;28;20068;-64
2021/05/13 01:14:44;;;;;;;11.38;6.07;;;17.40;99.90;;;;;;5049225;28;20084;-64
2021/05/13 01:19:46;;;;;;;11.50;5.85;;;17.30;99.90;;;;;;5050521;28;19983;-65
2021/05/13 01:22:15;;;;;;;9.18;5.07;;;17.30;99.90;;;;;;5050281;28;20535;-64
2021/05/13 01:24:42;;;;;;;8.98;5.03;;;17.30;99.90;;;;;;5049451;28;20080;-64
2021/05/13 01:27:10;;;;;;;11.15;5.07;;;17.20;99.90;;;;;;5046842;28;20428;-64
2021/05/13 01:29:44;;;;;;;9.50;4.65;;;17.30;99.90;;;;;;5032587;28;20107;-64
2021/05/13 01:32:13;;;;;;;9.55;4.85;;;17.20;99.90;;;;;;5034485;28;20049;-64
2021/05/13 01:34:41;;;;;;;9.75;4.85;;;17.20;99.90;;;;;;5050124;28;20052;-65
2021/05/13 01:37:09;;;;;;;10.32;4.68;;;17.20;99.90;;;;;;5033441;28;20087;-65
2021/05/13 01:39:36;;;;;;;10.75;4.82;;;17.20;99.90;;;;;;5050896;28;20057;-64
2021/05/13 01:42:03;;;;;;;10.90;5.05;;;17.30;99.90;;;;;;5051426;28;20045;-64
2021/05/13 01:44:30;;;;;;;9.65;5.13;;;17.30;99.90;;;;;;5009955;28;20045;-64
2021/05/13 01:46:57;;;;;;;8.95;4.88;;;17.30;99.90;;;;;;5029797;28;20064;-64
2021/05/13 01:49:27;;;;;;;12.02;4.97;;;17.30;99.90;;;;;;5050869;28;20043;-64
2021/05/13 01:51:54;;;;;;;10.02;4.93;;;17.30;99.90;;;;;;5033218;28;20037;-64
2021/05/13 01:54:21;;;;;;;8.48;4.63;;;17.30;99.90;;;;;;5022016;28;20057;-64
2021/05/13 01:56:48;;;;;;;9.40;4.90;;;17.30;99.90;;;;;;5034645;28;20068;-64
2021/05/13 01:59:16;;;;;;;9.02;5.47;;;17.30;99.90;;;;;;5051347;28;20057;-64
2021/05/13 02:01:43;;;;;;;11.10;5.38;;;17.30;99.90;;;;;;5021153;28;20063;-64
2021/05/13 02:04:11;;;;;;;11.27;5.55;;;17.20;99.90;;;;;;5049704;28;20100;-64
2021/05/13 02:06:38;;;;;;;10.35;5.53;;;17.30;99.90;;;;;;5015944;28;20056;-64
2021/05/13 02:09:05;;;;;;;9.63;5.22;;;17.30;99.90;;;;;;5034813;28;20570;-64
2021/05/13 02:11:32;;;;;;;12.82;5.85;;;17.20;99.90;;;;;;5048460;28;20059;-64
2021/05/13 02:13:59;;;;;;;9.45;5.03;;;17.20;99.90;;;;;;5052375;28;20076;-64
2021/05/13 02:16:26;;;;;;;11.25;5.20;;;17.20;99.90;;;;;;5049757;28;20041;-64
2021/05/13 02:18:53;;;;;;;10.77;5.75;;;17.20;99.90;;;;;;5015775;28;20079;-64
2021/05/13 02:21:20;;;;;;;10.93;5.65;;;17.20;99.90;;;;;;5033994;28;20037;-64
2021/05/13 02:23:48;;;;;;;10.90;5.70;;;17.20;99.90;;;;;;5046567;28;20432;-64
2021/05/13 02:26:18;;;;;;;11.63;6.00;;;17.10;99.90;;;;;;5016534;28;20057;-65
2021/05/13 02:28:45;;;;;;;13.52;5.55;;;17.20;99.90;;;;;;5041004;28;20061;-64
2021/05/13 02:31:12;;;;;;;11.48;5.63;;;17.20;99.90;;;;;;5027309;28;20048;-64
2021/05/13 02:33:39;;;;;;;11.70;5.55;;;17.10;99.90;;;;;;5031647;28;20111;-64
2021/05/13 02:36:08;;;;;;;9.07;5.10;;;16.90;99.90;;;;;;5050092;28;20048;-64
2021/05/13 02:38:36;;;;;;;11.85;5.38;;;16.90;99.90;;;;;;5048818;28;20053;-64
2021/05/13 02:41:03;;;;;;;10.63;5.10;;;16.90;99.90;;;;;;5033430;28;20057;-64
2021/05/13 02:43:30;;;;;;;11.10;5.70;;;16.90;99.90;;;;;;5028795;28;20041;-64
2021/05/13 02:45:57;;;;;;;9.18;4.60;;;16.90;99.90;;;;;;5022019;28;20053;-64
2021/05/13 02:48:24;;;;;;;10.75;4.97;;;16.90;99.90;;;;;;5049114;28;20064;-64
2021/05/13 02:50:51;;;;;;;10.93;5.78;;;16.90;99.90;;;;;;5049817;28;20132;-64
2021/05/13 02:53:18;;;;;;;11.02;6.38;;;16.90;99.90;;;;;;5029095;28;20452;-64
2021/05/13 02:55:45;;;;;;;10.90;5.25;;;16.90;99.90;;;;;;5032543;28;20064;-64
2021/05/13 02:58:12;;;;;;;9.43;4.65;;;16.90;99.90;;;;;;5031098;28;20045;-64
2021/05/13 03:01:07;;;;;;;12.10;4.88;;;16.90;99.90;;;;;;5046277;28;20045;-64
2021/05/13 03:03:35;;;;;;;10.13;4.88;;;16.90;99.90;;;;;;5030975;28;20049;-64
2021/05/13 03:06:02;;;;;;;11.13;4.90;;;16.90;99.90;;;;;;5021999;28;20053;-64
2021/05/13 03:08:30;;;;;;;8.85;5.00;;;16.90;99.90;;;;;;5027923;28;20049;-64
2021/05/13 03:10:57;;;;;;;10.23;5.13;;;16.80;99.90;;;;;;5031966;28;20068;-64
2021/05/13 03:13:26;;;;;;;11.10;5.32;;;16.80;99.90;;;;;;5049167;28;20044;-64
2021/05/13 03:15:53;;;;;;;9.45;5.07;;;16.70;99.90;;;;;;5049152;28;20049;-64
2021/05/13 03:18:26;;;;;;;8.75;4.50;;;16.80;99.90;;;;;;5049300;28;20048;-64
2021/05/13 03:21:02;;;;;;;8.32;4.75;;;16.80;99.90;;;;;;5029247;28;20065;-64
2021/05/13 03:23:40;;;;;;;9.68;5.18;;;16.80;99.90;;;;;;5050757;28;20477;-64
2021/05/13 03:26:07;;;;;;;9.25;4.82;;;16.80;99.90;;;;;;5025151;28;20061;-64
2021/05/13 03:28:34;;;;;;;8.43;4.25;;;16.80;99.90;;;;;;5054666;28;20044;-64
2021/05/13 03:31:01;;;;;;;9.02;4.13;;;16.70;99.90;;;;;;5036227;28;20060;-64
2021/05/13 03:33:28;;;;;;;11.25;4.88;;;16.70;99.90;;;;;;5051960;28;20053;-64
2021/05/13 03:35:55;;;;;;;9.70;5.22;;;16.70;99.90;;;;;;5035132;28;20081;-64
2021/05/13 03:38:22;;;;;;;10.25;5.07;;;16.70;99.90;;;;;;5016120;28;20376;-64
2021/05/13 03:40:49;;;;;;;11.35;4.63;;;16.70;99.90;;;;;;5055138;28;20053;-64
2021/05/13 03:43:16;;;;;;;8.38;4.55;;;16.60;99.90;;;;;;5014763;28;20471;-64
2021/05/13 03:45:43;;;;;;;8.07;4.32;;;16.70;99.90;;;;;;5024913;28;20522;-64
2021/05/13 03:48:11;;;;;;;7.40;3.95;;;16.60;99.90;;;;;;5034554;28;20516;-65
2021/05/13 03:50:39;;;;;;;9.48;4.20;;;16.60;99.90;;;;;;5050572;28;20045;-64
2021/05/13 03:53:07;;;;;;;7.80;3.92;;;16.60;99.90;;;;;;5032406;28;20458;-64
2021/05/13 03:55:35;;;;;;;9.65;4.85;;;16.60;99.90;;;;;;5054217;28;20069;-64
2021/05/13 03:58:05;;;;;;;10.27;4.88;;;16.60;99.90;;;;;;5054141;28;20037;-64
2021/05/13 04:00:40;;;;;;;10.90;4.30;;;16.60;99.90;;;;;;5053286;28;20402;-64
2021/05/13 04:03:07;;;;;;;10.88;5.03;;;16.60;99.90;;;;;;5051848;28;20057;-64
2021/05/13 04:05:35;;;;;;;9.10;4.30;;;16.60;99.90;;;;;;5052163;28;20057;-64
2021/05/13 04:08:06;;;;;;;8.80;4.32;;;16.60;99.90;;;;;;5036069;28;20052;-64
2021/05/13 04:10:34;;;;;;;10.15;4.78;;;16.60;99.90;;;;;;5020403;28;20698;-64
2021/05/13 04:13:04;;;;;;;8.70;4.25;;;16.60;99.90;;;;;;5053176;28;20689;-64
2021/05/13 04:15:50;;;;;;;8.85;4.47;;;16.50;99.90;;;;;;5053917;28;20059;-64
2021/05/13 04:18:17;;;;;;;9.57;4.53;;;16.60;99.90;;;;;;5036932;28;20507;-64
2021/05/13 04:20:45;;;;;;;7.90;4.32;;;16.60;99.90;;;;;;5033192;28;20049;-64
2021/05/13 04:23:12;;;;;;;8.18;4.15;;;16.60;99.90;;;;;;5034560;28;20499;-65
2021/05/13 04:25:39;;;;;;;7.68;3.90;;;16.60;99.90;;;;;;5030733;28;20083;-64
2021/05/13 04:28:06;;;;;;;9.00;4.00;;;16.70;99.90;;;;;;5052886;28;20404;-64
2021/05/13 04:30:33;;;;;;;7.97;4.15;;;16.70;99.90;;;;;;5050474;28;20058;-64
2021/05/13 04:33:00;;;;;;;8.85;4.07;;;16.70;99.90;;;;;;5046996;28;20056;-64
2021/05/13 04:35:28;;;;;;;7.28;4.18;;;16.70;99.90;;;;;;5036364;28;20051;-64
2021/05/13 04:37:55;;;;;;;8.98;4.10;;;16.70;99.90;;;;;;5051272;28;20052;-65
2021/05/13 04:40:22;;;;;;;9.60;4.20;;;16.80;99.90;;;;;;5051575;28;20059;-65
2021/05/13 04:42:49;;;;;;;9.00;4.03;;;16.80;99.90;;;;;;5016218;28;20104;-65
2021/05/13 04:45:16;;;;;;;9.18;5.13;;;16.80;99.90;;;;;;5050738;28;20041;-64
2021/05/13 04:50:11;;;;;;;8.18;4.05;;;16.80;99.90;;;;;;5049040;28;20051;-64
2021/05/13 04:52:42;;;;;;;11.45;3.28;;;16.90;99.90;;;;;;5035035;28;20049;-64
2021/05/13 04:55:10;;;;;;;9.00;4.63;;;16.90;99.90;;;;;;5028374;28;20072;-64
2021/05/13 04:57:37;;;;;;;8.88;4.30;;;16.80;99.90;;;;;;5033549;28;20716;-64
2021/05/13 05:00:07;;;;;;;7.20;3.58;;;16.80;99.90;;;;;;5029314;28;20049;-64
2021/05/13 05:02:34;;;;;;;7.40;3.78;;;16.80;99.90;;;;;;5047189;28;20508;-65
2021/05/13 05:05:01;;;;;;;7.70;4.07;;;16.80;99.90;;;;;;5045383;28;20049;-64
2021/05/13 05:07:28;;;;;;;6.72;3.50;;;16.40;99.90;;;;;;5033707;28;20049;-64
2021/05/13 05:09:55;;;;;;;8.30;3.67;;;16.70;99.90;;;;;;5051233;28;20049;-64
2021/05/13 05:12:22;;;;;;;7.35;3.97;;;16.60;99.90;;;;;;5034671;28;20052;-64
2021/05/13 05:14:49;;;;;;;10.32;4.35;;;16.50;99.90;;;;;;5016156;28;20739;-64
2021/05/13 05:17:16;;;;;;;9.57;4.55;;;16.50;99.90;;;;;;5020807;28;20056;-64
2021/05/13 05:19:43;;;;;;;8.77;4.00;;;16.50;99.90;;;;;;5032761;28;20045;-65
2021/05/13 05:22:10;;;;;;;9.23;4.88;;;16.50;99.90;;;;;;5035135;28;20044;-64
2021/05/13 05:24:37;;;;;;;8.07;4.03;;;16.50;99.90;;;;;;5014997;28;20520;-65
2021/05/13 05:27:05;;;;;;;8.80;4.07;;;16.50;99.90;;;;;;5029228;28;20136;-65
2021/05/13 05:29:32;;;;;;;9.68;3.90;;;16.50;99.90;;;;;;5050859;28;20099;-64
2021/05/13 05:31:59;;;;;;;8.23;4.15;;;16.50;99.90;;;;;;5051246;28;20106;-64
2021/05/13 05:34:26;;;;;;;6.10;3.05;;;16.50;99.90;;;;;;5051435;28;20041;-64
2021/05/13 05:36:53;;;;;;;6.50;3.40;;;16.50;99.90;;;;;;5031039;28;20381;-65
2021/05/13 05:39:21;;;;;;;7.70;4.07;;;16.50;99.90;;;;;;5049149;28;20567;-64
2021/05/13 05:41:48;;;;;;;7.05;4.13;;;16.50;99.90;;;;;;5050607;28;20053;-64
2021/05/13 05:44:15;;;;;;;7.70;3.50;;;16.50;99.90;;;;;;5028068;28;20053;-64
2021/05/13 05:46:42;;;;;;;5.80;3.03;;;16.50;99.90;;;;;;5028113;28;20061;-64
2021/05/13 05:49:09;;;;;;;7.47;3.58;;;16.50;99.90;;;;;;5027709;28;20046;-64
2021/05/13 05:51:36;;;;;;;6.25;3.22;;;16.50;99.90;;;;;;5043202;28;20052;-64
2021/05/13 05:54:05;;;;;;;6.35;3.33;;;16.50;99.90;;;;;;5050255;28;20057;-64
2021/05/13 05:56:32;;;;;;;6.60;3.47;;;16.40;99.90;;;;;;5028692;28;20045;-64
2021/05/13 05:59:00;;;;;;;5.85;3.50;;;16.40;99.90;;;;;;5038030;28;20045;-64
2021/05/13 06:01:27;;;;;;;5.40;2.72;;;16.40;99.90;;;;;;5033846;28;20042;-64
2021/05/13 06:03:55;;;;;;;7.47;3.55;;;16.40;99.90;;;;;;5028130;28;20079;-64
2021/05/13 06:06:22;;;;;;;7.95;3.30;;;16.40;99.90;;;;;;5042730;28;20053;-64
2021/05/13 06:08:49;;;;;;;5.95;3.05;;;16.40;99.90;;;;;;5031591;28;20057;-64
2021/05/13 06:11:16;;;;;;;7.40;3.53;;;16.50;99.90;;;;;;5048949;28;20107;-64
2021/05/13 06:13:43;;;;;;;6.63;3.08;;;16.50;99.90;;;;;;5048816;28;20376;-64
2021/05/13 06:16:11;;;;;;;5.68;2.83;;;16.50;99.90;;;;;;5025509;28;20049;-64
2021/05/13 06:18:52;;;;;;;6.38;3.15;;;16.50;99.90;;;;;;5048683;28;20044;-64
2021/05/13 06:21:19;;;;;;;7.68;2.97;;;16.50;99.90;;;;;;5021466;28;20129;-64
2021/05/13 06:23:49;;;;;;;7.13;3.80;;;16.50;99.90;;;;;;5030314;28;20049;-64
2021/05/13 06:26:24;;;;;;;5.72;3.00;;;16.50;99.90;;;;;;5049478;28;20057;-64
2021/05/13 06:28:59;;;;;;;8.30;3.00;;;16.60;99.90;;;;;;5021309;28;20124;-64
2021/05/13 06:31:27;;;;;;;7.13;3.35;;;16.50;99.90;;;;;;5032438;28;20049;-65
2021/05/13 06:33:54;;;;;;;7.03;3.97;;;16.50;99.90;;;;;;5040122;28;20044;-64
2021/05/13 06:36:21;;;;;;;7.75;3.03;;;16.40;99.90;;;;;;5048729;28;20049;-64
2021/05/13 06:38:48;;;;;;;5.75;2.47;;;16.40;99.90;;;;;;5029950;28;20511;-64
2021/05/13 06:41:15;;;;;;;5.80;3.10;;;16.30;99.90;;;;;;5030983;28;20041;-64
2021/05/13 06:43:43;;;;;;;6.95;2.90;;;16.30;99.90;;;;;;5050055;28;20044;-65
2021/05/13 06:46:10;;;;;;;5.75;2.60;;;16.40;99.90;;;;;;5002900;28;20064;-64
2021/05/13 06:48:39;;;;;;;5.15;2.95;;;16.40;99.90;;;;;;5027453;28;20148;-64
2021/05/13 06:51:06;;;;;;;5.47;2.63;;;16.30;99.90;;;;;;5031958;28;20107;-64
2021/05/13 06:53:33;;;;;;;5.40;2.20;;;16.40;99.90;;;;;;5032196;28;20060;-64
2021/05/13 06:56:00;;;;;;;4.78;2.28;;;16.40;99.90;;;;;;5030744;28;20044;-64
2021/05/13 06:58:27;;;;;;;4.78;1.98;;;16.40;99.90;;;;;;5031188;28;20057;-64
2021/05/13 07:00:54;;;;;;;4.85;2.63;;;16.40;99.90;;;;;;5047845;28;20055;-64
2021/05/13 07:03:22;;;;;;;4.95;2.03;;;16.40;99.90;;;;;;5038651;28;20048;-65
2021/05/13 07:05:49;;;;;;;4.30;1.95;;;16.40;99.90;;;;;;5052096;28;20060;-64
2021/05/13 07:08:15;;;;;;;5.43;2.00;;;16.40;99.90;;;;;;5052678;28;20083;-64
2021/05/13 07:10:43;;;;;;;4.47;2.00;;;16.40;99.90;;;;;;5036879;28;20044;-64
2021/05/13 07:13:09;;;;;;;3.75;1.88;;;16.30;99.90;;;;;;5041596;28;20041;-64
2021/05/13 07:15:36;;;;;;;4.40;2.10;;;16.30;99.90;;;;;;5036247;28;20048;-64
2021/05/13 07:18:04;;;;;;;4.18;2.30;;;16.30;99.90;;;;;;5036078;28;20044;-64
2021/05/13 07:20:32;;;;;;;5.50;1.88;;;16.30;99.90;;;;;;5055021;28;20098;-64
2021/05/13 07:23:00;;;;;;;4.78;2.38;;;16.40;99.90;;;;;;5052692;28;20063;-64
2021/05/13 07:25:27;;;;;;;5.07;2.10;;;16.50;99.90;;;;;;5036409;28;20125;-64
2021/05/13 07:27:54;;;;;;;4.70;2.00;;;16.50;99.90;;;;;;5023638;28;20053;-64
2021/05/13 07:30:22;;;;;;;4.85;2.33;;;16.40;99.90;;;;;;5054397;28;20056;-65
2021/05/13 07:32:49;;;;;;;5.00;2.42;;;16.50;99.90;;;;;;5053976;28;20057;-64
2021/05/13 07:35:17;;;;;;;5.95;2.25;;;16.50;99.90;;;;;;5037300;28;20040;-64
2021/05/13 07:37:46;;;;;;;5.85;2.70;;;16.50;99.90;;;;;;5034238;28;20119;-65
2021/05/13 07:40:15;;;;;;;5.20;2.45;;;16.60;99.90;;;;;;5047759;28;20045;-65
2021/05/13 07:42:42;;;;;;;5.00;2.50;;;16.60;99.90;;;;;;5036302;28;20049;-65
2021/05/13 07:45:10;;;;;;;4.78;2.25;;;16.60;99.90;;;;;;5050913;28;20111;-66
2021/05/13 07:47:38;;;;;;;6.60;3.67;;;16.70;99.90;;;;;;5048547;28;20048;-65
2021/05/13 07:50:14;;;;;;;7.97;3.17;;;16.70;99.90;;;;;;5054052;28;20114;-65
2021/05/13 07:52:41;;;;;;;8.15;3.28;;;16.70;99.90;;;;;;5033955;28;20114;-65
2021/05/13 07:55:09;;;;;;;5.97;2.20;;;16.70;99.90;;;;;;5032662;28;20046;-65
2021/05/13 07:57:36;;;;;;;5.95;2.28;;;16.70;99.90;;;;;;5005472;28;20049;-68
2021/05/13 08:00:05;;;;;;;4.75;1.88;;;16.70;99.90;;;;;;5027529;28;20053;-65
2021/05/13 08:02:39;;;;;;;6.80;2.65;;;16.70;99.90;;;;;;5024335;28;20068;-65
2021/05/13 08:05:07;;;;;;;3.42;1.98;;;16.70;99.90;;;;;;5050053;28;20053;-65
2021/05/13 08:07:34;;;;;;;5.13;2.58;;;16.70;99.90;;;;;;5026509;28;20499;-65
2021/05/13 08:10:01;;;;;;;5.72;2.70;;;16.70;99.90;;;;;;5023944;28;20061;-67
2021/05/13 08:12:28;;;;;;;4.55;2.45;;;16.70;99.90;;;;;;5028639;28;20041;-67
2021/05/13 08:14:55;;;;;;;5.20;2.83;;;16.70;99.90;;;;;;5009938;28;20064;-65
2021/05/13 08:17:22;;;;;;;4.88;2.33;;;16.80;99.90;;;;;;5024183;28;20060;-65
2021/05/13 08:19:50;;;;;;;5.15;2.60;;;16.80;99.90;;;;;;5042903;28;20052;-65
2021/05/13 08:22:17;;;;;;;6.90;2.90;;;16.80;99.90;;;;;;5038254;28;20076;-68
2021/05/13 08:24:44;;;;;;;6.40;2.85;;;16.70;99.90;;;;;;5045485;28;20068;-66
2021/05/13 08:27:11;;;;;;;4.97;2.33;;;16.70;99.90;;;;;;5038427;28;20077;-67
2021/05/13 08:29:38;;;;;;;4.03;1.90;;;16.70;99.90;;;;;;5033516;28;20673;-67
2021/05/13 08:32:06;;;;;;;5.60;2.80;;;16.70;99.90;;;;;;5036199;28;20054;-65
2021/05/13 08:34:33;;;;;;;5.50;1.80;;;16.70;99.90;;;;;;5024119;28;20053;-65
2021/05/13 08:37:02;;;;;;;2.90;1.35;;;16.60;99.90;;;;;;5034134;28;20056;-65
2021/05/13 08:39:31;;;;;;;3.25;1.30;;;16.60;99.90;;;;;;5035616;28;20081;-65
2021/05/13 08:42:00;;;;;;;4.07;1.73;;;16.60;99.90;;;;;;5044670;28;20056;-64
2021/05/13 08:44:28;;;;;;;3.75;2.22;;;16.60;99.90;;;;;;5025015;28;20501;-64
2021/05/13 08:46:59;;;;;;;6.00;2.70;;;16.60;99.90;;;;;;5038262;28;20534;-65
2021/05/13 08:49:29;;;;;;;5.80;2.67;;;16.60;99.90;;;;;;5028674;28;20098;-65
2021/05/13 08:51:56;;;;;;;4.28;2.20;;;16.50;99.90;;;;;;5045448;28;20061;-65
2021/05/13 08:54:23;;;;;;;3.72;1.70;;;16.50;99.90;;;;;;5046056;28;20045;-65
2021/05/13 08:56:52;;;;;;;3.42;1.90;;;16.60;99.90;;;;;;5026282;28;20061;-65
2021/05/13 08:59:20;;;;;;;5.78;1.52;;;16.60;99.90;;;;;;5044725;28;20134;-65
2021/05/13 09:02:00;;;;;;;3.92;1.40;;;16.60;99.90;;;;;;5022603;28;20453;-65
2021/05/13 09:04:38;;;;;;;3.97;1.48;;;16.60;99.90;;;;;;5026736;28;20053;-65
2021/05/13 09:07:25;;;;;;;2.08;1.08;;;16.70;99.90;;;;;;5029795;28;20071;-65
2021/05/13 09:09:54;;;;;;;;;;;16.70;99.90;;;;;;5029926;28;20061;-65
2021/05/13 09:12:23;;;;;;;2.15;1.17;;;16.80;99.90;;;;;;5028836;28;19929;-65
2021/05/13 09:15:07;;;;;;;1.65;1.00;;;16.80;99.90;;;;;;5008288;28;20865;-65
2021/05/13 09:17:35;;;;;;;3.22;1.25;;;16.80;99.90;;;;;;5028487;28;20723;-65
2021/05/13 09:20:04;;;;;;;2.03;1.23;;;16.80;99.90;;;;;;5040257;28;20045;-65
2021/05/13 09:22:32;;;;;;;2.92;1.10;;;16.80;99.90;;;;;;5024216;28;20049;-65
2021/05/13 09:25:04;;;;;;;1.83;0.88;;;16.80;99.90;;;;;;5040109;28;20064;-65
2021/05/13 09:27:43;;;;;;;1.80;1.17;;;16.60;99.90;;;;;;5012775;28;20064;-65
2021/05/13 09:30:16;;;;;;;2.13;1.27;;;16.60;99.90;;;;;;5022862;28;20386;-65
2021/05/13 09:32:47;;;;;;;8.30;1.42;;;16.60;99.90;;;;;;5021229;28;20067;-68
2021/05/13 09:35:20;;;;;;;2.70;1.13;;;16.70;99.90;;;;;;5019589;28;20053;-66
2021/05/13 09:37:59;;;;;;;1.27;0.80;;;16.70;99.90;;;;;;5041038;28;20045;-69
2021/05/13 09:40:52;;;;;;;1.45;0.73;;;16.70;99.90;;;;;;5017510;28;20624;-65
2021/05/13 09:43:39;;;;;;;2.22;0.60;;;16.70;99.90;;;;;;5024596;28;20107;-66
2021/05/13 09:46:06;;;;;;;1.83;0.50;;;16.70;99.90;;;;;;5022126;28;20135;-65
2021/05/13 09:48:45;;;;;;;0.60;0.40;;;16.70;99.90;;;;;;5039661;28;20055;-65
2021/05/13 09:51:29;;;;;;;1.00;0.38;;;16.70;99.90;;;;;;5041332;28;20079;-65
2021/05/13 09:54:31;;;;;;;1.73;0.50;;;16.70;99.90;;;;;;5025176;28;20049;-66
2021/05/13 09:56:58;;;;;;;0.35;0.10;;;16.70;99.90;;;;;;4964601;28;20061;-66
2021/05/13 09:59:36;;;;;;;0.50;0.10;;;16.70;99.90;;;;;;4960633;28;20138;-66
2021/05/13 10:02:06;;;;;;;0.52;0.10;;;16.70;99.90;;;;;;4963357;28;20046;-65
2021/05/13 10:04:34;;;;;;;0.57;0.15;;;16.70;99.90;;;;;;4965760;28;20042;-65
2021/05/13 10:07:01;;;;;;;0.52;0.20;;;16.80;99.90;;;;;;4970470;28;20109;-65
2021/05/13 10:09:31;;;;;;;0.40;0.10;;;16.80;99.90;;;;;;4953142;28;20066;-65
2021/05/13 10:12:09;;;;;;;0.52;0.35;;;16.90;99.90;;;;;;4960699;28;20058;-65
2021/05/13 10:14:36;;;;;;;1.13;0.30;;;16.90;99.90;;;;;;4970134;28;20051;-65
2021/05/13 10:17:12;;;;;;;0.60;0.30;;;17.00;99.90;;;;;;4967423;28;20051;-65
2021/05/13 10:19:48;;;;;;;0.93;0.32;;;16.90;99.90;;;;;;4963155;28;20137;-65
2021/05/13 10:22:16;;;;;;;0.82;0.28;;;16.90;99.90;;;;;;4935952;28;20415;-65
2021/05/13 10:24:43;;;;;;;3.33;1.35;;;17.00;99.90;;;;;;4944607;28;20167;-65
2021/05/13 10:27:14;;;;;;;1.48;0.50;;;17.00;99.90;;;;;;4923655;28;20058;-65
2021/05/13 10:29:42;;;;;;;3.40;0.30;;;17.00;99.90;;;;;;4933257;28;20051;-65
2021/05/13 10:32:18;;;;;;;0.50;0.20;;;17.00;99.90;;;;;;5021623;28;20057;-65
2021/05/13 10:35:05;;;;;;;0.98;0.30;;;17.00;99.90;;;;;;5001428;28;20054;-65
2021/05/13 10:37:39;;;;;;;1.58;0.73;;;17.00;99.90;;;;;;5001113;28;20060;-67
2021/05/13 10:40:25;;;;;;;1.05;0.60;;;17.00;99.90;;;;;;5023070;28;20065;-67
2021/05/13 10:43:04;;;;;;;1.00;0.40;;;17.00;99.90;;;;;;5013406;28;20041;-68
2021/05/13 10:45:36;;;;;;;0.75;0.30;;;17.00;99.90;;;;;;5020267;28;20388;-68
2021/05/13 10:48:25;;;;;;;1.13;0.25;;;16.90;99.90;;;;;;5026794;28;20064;-68
2021/05/13 10:50:55;;;;;;;0.50;0.20;;;17.00;99.90;;;;;;5026160;28;20425;-67
2021/05/13 10:53:35;;;;;;;1.27;0.30;;;17.00;99.90;;;;;;5010697;28;20053;-66
2021/05/13 10:56:24;;;;;;;3.63;0.50;;;17.00;99.90;;;;;;5026238;28;20515;-66
2021/05/13 10:59:09;;;;;;;35.10;15.95;;;17.10;99.90;;;;;;5019192;28;20147;-66
2021/05/13 11:01:40;;;;;;;10.15;4.85;;;17.10;99.90;;;;;;5022434;28;20057;-66
2021/05/13 11:04:21;;;;;;;14.50;7.78;;;17.10;99.90;;;;;;5012726;28;20377;-67
2021/05/13 11:07:11;;;;;;;8.75;3.15;;;17.10;99.90;;;;;;5008342;28;20049;-66
2021/05/13 11:09:39;;;;;;;4.93;1.08;;;17.10;99.90;;;;;;5012547;28;20056;-67
2021/05/13 11:12:26;;;;;;;0.85;0.28;;;17.10;99.90;;;;;;5022875;28;20046;-66
2021/05/13 11:15:12;;;;;;;3.83;0.55;;;17.10;99.90;;;;;;5024907;28;20495;-66
2021/05/13 11:17:53;;;;;;;1.45;0.60;;;17.10;99.90;;;;;;5008664;28;20057;-66
2021/05/13 11:20:34;;;;;;;1.10;0.32;;;17.10;99.90;;;;;;5030439;28;20041;-66
2021/05/13 11:23:10;;;;;;;2.00;0.60;;;17.10;99.90;;;;;;5029923;28;20060;-67
2021/05/13 11:25:50;;;;;;;1.80;0.40;;;17.10;99.90;;;;;;5046814;28;20076;-67
2021/05/13 11:28:23;;;;;;;1.83;0.50;;;17.10;99.90;;;;;;5030106;28;20049;-66
2021/05/13 11:31:19;;;;;;;1.30;0.52;;;17.10;99.90;;;;;;5046364;28;20504;-66
2021/05/13 11:33:48;;;;;;;;;;;17.10;99.90;;;;;;5008085;28;20045;-67
2021/05/13 11:36:18;;;;;;;1.00;0.40;;;17.10;99.90;;;;;;5031544;28;19920;-67
2021/05/13 11:38:59;;;;;;;2.40;0.73;;;17.00;99.90;;;;;;5028797;28;20064;-68
2021/05/13 11:41:27;;;;;;;1.40;0.60;;;17.10;99.90;;;;;;5027761;28;20063;-67
2021/05/13 11:43:55;;;;;;;1.42;0.70;;;17.10;99.90;;;;;;5048260;28;20041;-67
2021/05/13 11:46:24;;;;;;;1.02;0.50;;;17.10;99.90;;;;;;5046979;28;20446;-66
2021/05/13 11:48:52;;;;;;;1.02;0.30;;;17.10;99.90;;;;;;5050475;28;20053;-67
2021/05/13 11:51:28;;;;;;;1.00;0.22;;;17.00;99.90;;;;;;5033792;28;20043;-66
2021/05/13 11:54:00;;;;;;;0.75;0.30;;;17.00;99.90;;;;;;5052976;28;20476;-66
2021/05/13 11:56:31;;;;;;;0.68;0.30;;;16.90;99.90;;;;;;5051721;28;21135;-66
2021/05/13 11:59:00;;;;;;;1.70;0.57;;;16.90;99.90;;;;;;5032020;28;20029;-67
2021/05/13 12:01:27;;;;;;;1.92;0.50;;;16.90;99.90;;;;;;5033151;28;20041;-66
2021/05/13 12:04:13;;;;;;;1.00;0.50;;;16.90;99.90;;;;;;5033668;28;20099;-66
2021/05/13 12:06:49;;;;;;;2.28;0.70;;;16.90;99.90;;;;;;5029012;28;20057;-66
2021/05/13 12:09:19;;;;;;;4.05;0.80;;;17.00;99.90;;;;;;5030635;28;20177;-66
2021/05/13 12:11:48;;;;;;;1.50;0.40;;;17.00;99.90;;;;;;5051802;28;20067;-65
2021/05/13 12:14:25;;;;;;;0.82;0.50;;;17.00;99.90;;;;;;5041747;28;20063;-66
2021/05/13 12:16:54;;;;;;;0.70;0.30;;;16.90;99.90;;;;;;5038555;28;20045;-66
2021/05/13 12:19:23;;;;;;;1.13;0.25;;;16.90;99.90;;;;;;5053513;28;20099;-66
2021/05/13 12:21:55;;;;;;;2.05;0.43;;;16.90;99.90;;;;;;5052997;28;20388;-66
2021/05/13 12:24:33;;;;;;;3.78;1.13;;;16.90;99.90;;;;;;5033224;28;20045;-66
2021/05/13 12:27:01;;;;;;;0.60;0.10;;;17.00;99.90;;;;;;5017161;28;20053;-66
2021/05/13 12:29:28;;;;;;;1.45;0.30;;;16.90;99.90;;;;;;5043468;28;20049;-66
2021/05/13 12:31:56;;;;;;;0.15;0.00;;;17.00;99.90;;;;;;5033010;28;20174;-67
2021/05/13 12:34:51;;;;;;;0.80;0.10;;;17.00;99.90;;;;;;5050512;28;20053;-66
2021/05/13 12:37:22;;;;;;;0.70;0.20;;;17.00;99.90;;;;;;5032905;28;20052;-66
2021/05/13 12:39:50;;;;;;;0.60;0.10;;;17.00;99.90;;;;;;5047194;28;20688;-66
2021/05/13 12:42:30;;;;;;;0.32;0.10;;;17.00;99.90;;;;;;5017006;28;20049;-67
2021/05/13 12:45:18;;;;;;;0.30;0.10;;;17.10;99.90;;;;;;5050509;28;20079;-65
2021/05/13 12:47:55;;;;;;;0.70;0.10;;;17.10;99.90;;;;;;5020024;28;20050;-66
2021/05/13 12:50:26;;;;;;;0.63;0.30;;;17.10;99.90;;;;;;5049568;28;20550;-66
2021/05/13 12:53:14;;;;;;;1.33;0.35;;;17.10;99.90;;;;;;5052548;28;20408;-66
2021/05/13 12:55:43;;;;;;;0.63;0.22;;;17.20;99.90;;;;;;5031696;28;20045;-66
2021/05/13 12:58:15;;;;;;;0.93;0.43;;;17.20;99.90;;;;;;5037540;28;20107;-65
2021/05/13 13:00:46;;;;;;;1.05;0.32;;;17.20;99.90;;;;;;5046656;28;20037;-66
2021/05/13 13:03:15;;;;;;;0.50;0.20;;;17.20;99.90;;;;;;5014841;28;20048;-66
2021/05/13 13:05:43;;;;;;;2.00;0.17;;;17.20;99.90;;;;;;5044565;28;20077;-66